createdAt,value
2023-03-22T00:02:04.714Z,6.20
2023-03-22T00:07:07.565Z,7.20
2023-03-22T00:12:12.745Z,5.33
2023-03-22T00:17:16.012Z,7.68
2023-03-22T00:22:37.468Z,6.63
2023-03-22T00:27:40.194Z,5.43
2023-03-22T00:32:43.136Z,5.77
2023-03-22T00:37:45.853Z,7.13
2023-03-22T00:42:48.560Z,5.67
2023-03-22T00:47:51.450Z,8.17
2023-03-22T00:52:54.482Z,7.70
2023-03-22T00:57:57.572Z,7.63
2023-03-22T01:03:04.518Z,7.53
2023-03-22T01:08:08.836Z,8.10
2023-03-22T01:13:12.696Z,6.00
2023-03-22T01:18:15.627Z,6.03
2023-03-22T01:23:18.465Z,5.47
2023-03-22T01:28:21.186Z,7.53
2023-03-22T01:33:23.961Z,6.50
2023-03-22T01:43:34.174Z,5.90
2023-03-22T01:48:46.411Z,3.87
2023-03-22T01:53:58.178Z,6.38
2023-03-22T01:59:05.879Z,6.30
2023-03-22T02:04:34.696Z,6.22
2023-03-22T02:09:41.915Z,6.80
2023-03-22T02:15:07.221Z,7.55
2023-03-22T02:20:34.189Z,6.97
2023-03-22T02:25:41.675Z,6.75
2023-03-22T02:30:59.581Z,6.88
2023-03-22T02:36:25.061Z,8.00
2023-03-22T02:41:50.946Z,6.65
2023-03-22T02:47:26.955Z,7.13
2023-03-22T02:52:39.649Z,8.95
2023-03-22T02:57:53.061Z,7.68
2023-03-22T03:03:00.468Z,9.00
2023-03-22T03:08:03.739Z,7.05
2023-03-22T03:13:16.637Z,6.72
2023-03-22T03:18:23.749Z,6.35
2023-03-22T03:23:38.089Z,6.28
2023-03-22T03:28:59.276Z,6.53
2023-03-22T03:34:20.031Z,7.22
2023-03-22T03:39:25.128Z,7.07
2023-03-22T03:44:28.469Z,5.50
2023-03-22T03:49:31.532Z,6.20
2023-03-22T03:54:34.425Z,6.90
2023-03-22T03:59:39.398Z,6.60
2023-03-22T04:04:51.839Z,6.57
2023-03-22T04:09:55.984Z,5.88
2023-03-22T04:15:03.290Z,5.57
2023-03-22T04:20:11.417Z,4.57
2023-03-22T04:25:18.469Z,6.20
2023-03-22T04:30:36.573Z,5.57
2023-03-22T04:35:59.832Z,4.82
2023-03-22T04:41:10.787Z,4.38
2023-03-22T04:46:18.644Z,4.55
2023-03-22T04:51:28.425Z,4.50
2023-03-22T04:56:45.663Z,5.70
2023-03-22T05:01:51.816Z,5.32
2023-03-22T05:06:59.662Z,4.60
2023-03-22T05:12:11.497Z,4.90
2023-03-22T05:17:26.478Z,5.25
2023-03-22T05:22:34.882Z,4.90
2023-03-22T05:27:39.296Z,4.90
2023-03-22T05:33:04.769Z,4.07
2023-03-22T05:38:13.278Z,4.25
2023-03-22T05:43:21.269Z,4.95
2023-03-22T05:48:26.124Z,4.75
2023-03-22T05:53:29.882Z,4.20
2023-03-22T05:58:37.578Z,4.63
2023-03-22T06:03:41.076Z,3.55
2023-03-22T06:09:07.251Z,3.97
2023-03-22T06:14:19.448Z,4.38
2023-03-22T06:19:51.406Z,3.58
2023-03-22T06:24:55.705Z,3.17
2023-03-22T06:30:08.861Z,2.58
2023-03-22T06:35:25.277Z,3.22
2023-03-22T06:40:28.359Z,2.88
2023-03-22T06:45:33.760Z,2.63
2023-03-22T06:50:41.236Z,2.33
2023-03-22T06:55:48.530Z,2.80
2023-03-22T07:00:58.594Z,3.22
2023-03-22T07:06:08.501Z,2.90
2023-03-22T07:11:14.555Z,2.70
2023-03-22T07:16:20.161Z,2.92
2023-03-22T07:21:33.624Z,3.10
2023-03-22T07:26:41.531Z,3.65
2023-03-22T07:31:47.536Z,3.35
2023-03-22T07:37:04.366Z,3.58
2023-03-22T07:42:07.755Z,3.03
2023-03-22T07:47:45.852Z,3.13
2023-03-22T07:52:48.557Z,2.85
2023-03-22T07:57:51.649Z,2.67
2023-03-22T08:02:54.958Z,2.50
2023-03-22T08:08:14.645Z,2.80
2023-03-22T08:13:17.656Z,2.38
2023-03-22T08:18:20.587Z,2.75
2023-03-22T08:23:38.493Z,2.78
2023-03-22T08:29:00.086Z,3.17
2023-03-22T08:34:06.258Z,2.80
2023-03-22T08:39:09.939Z,3.10
2023-03-22T08:44:35.288Z,2.90
2023-03-22T08:49:39.650Z,3.10
2023-03-22T08:54:52.876Z,3.10
2023-03-22T09:00:17.796Z,2.42
2023-03-22T09:05:29.364Z,2.80
2023-03-22T09:10:32.969Z,2.60
2023-03-22T09:15:36.214Z,3.15
2023-03-22T09:20:52.912Z,2.63
2023-03-22T09:26:05.512Z,2.55
2023-03-22T09:31:10.192Z,2.58
2023-03-22T09:36:14.724Z,2.80
2023-03-22T09:41:25.939Z,2.20
2023-03-22T09:46:37.263Z,2.38
2023-03-22T09:51:43.199Z,2.90
2023-03-22T09:56:51.939Z,2.67
2023-03-22T10:01:58.141Z,2.53
2023-03-22T10:07:08.349Z,3.10
2023-03-22T10:12:37.206Z,3.03
2023-03-22T10:17:43.175Z,3.53
2023-03-22T10:22:46.679Z,2.67
2023-03-22T10:27:51.287Z,2.33
2023-03-22T10:33:05.229Z,2.30
2023-03-22T10:38:13.851Z,3.30
2023-03-22T10:43:23.455Z,2.55
2023-03-22T10:48:30.438Z,2.60
2023-03-22T10:53:41.731Z,2.90
2023-03-22T10:58:44.699Z,2.53
2023-03-22T11:03:52.760Z,2.58
2023-03-22T11:08:59.063Z,2.67
2023-03-22T11:14:37.222Z,3.10
2023-03-22T11:19:42.112Z,2.90
2023-03-22T11:24:47.411Z,3.33
2023-03-22T11:30:09.298Z,3.08
2023-03-22T11:35:19.062Z,3.00
2023-03-22T11:40:30.109Z,2.60
2023-03-22T11:45:36.628Z,2.35
2023-03-22T11:50:41.120Z,3.03
2023-03-22T11:55:45.369Z,2.67
2023-03-22T12:00:54.077Z,1.93
2023-03-22T12:06:06.088Z,2.03
2023-03-22T12:11:28.317Z,1.90
2023-03-22T12:16:41.839Z,2.40
2023-03-22T12:21:46.260Z,2.50
2023-03-22T12:26:53.343Z,2.80
2023-03-22T12:32:03.782Z,3.05
2023-03-22T12:37:12.437Z,2.97
2023-03-22T12:42:25.779Z,2.60
2023-03-22T12:47:35.708Z,2.65
2023-03-22T12:52:57.118Z,2.72
2023-03-22T12:58:00.791Z,2.85
2023-03-22T13:03:10.560Z,2.67
2023-03-22T13:08:14.201Z,2.45
2023-03-22T13:13:23.340Z,2.40
2023-03-22T13:18:53.030Z,2.88
2023-03-22T13:24:15.755Z,2.75
2023-03-22T13:29:24.795Z,3.10
2023-03-22T13:34:45.114Z,2.78
2023-03-22T13:39:54.876Z,2.92
2023-03-22T13:45:02.738Z,3.22
2023-03-22T13:50:19.260Z,2.90
2023-03-22T13:55:42.738Z,2.60
2023-03-22T14:00:50.282Z,2.72
2023-03-22T14:06:18.890Z,2.40
2023-03-22T14:11:26.589Z,2.40
2023-03-22T14:16:50.378Z,2.05
